sensor_id;sensor_type;location;lat;lon;timestamp;P1;durP1;ratioP1;P2;durP2;ratioP2
37205;SDS011;23099;42.636;23.198;2023-05-19T00:02:12;14.40;;;4.10;;
37205;SDS011;23099;42.636;23.198;2023-05-19T00:04:40;12.13;;;4.00;;
37205;SDS011;23099;42.636;23.198;2023-05-19T00:07:07;8.85;;;4.25;;
37205;SDS011;23099;42.636;23.198;2023-05-19T00:09:37;10.23;;;4.60;;
37205;SDS011;23099;42.636;23.198;2023-05-19T00:12:05;9.90;;;4.22;;
37205;SDS011;23099;42.636;23.198;2023-05-19T00:14:32;9.25;;;4.47;;
37205;SDS011;23099;42.636;23.198;2023-05-19T00:17:00;12.20;;;4.35;;
37205;SDS011;23099;42.636;23.198;2023-05-19T00:19:27;12.30;;;4.78;;
37205;SDS011;23099;42.636;23.198;2023-05-19T00:21:56;9.80;;;4.75;;
37205;SDS011;23099;42.636;23.198;2023-05-19T00:24:23;7.80;;;4.28;;
37205;SDS011;23099;42.636;23.198;2023-05-19T00:26:51;12.10;;;4.63;;
37205;SDS011;23099;42.636;23.198;2023-05-19T00:29:17;9.40;;;4.43;;
37205;SDS011;23099;42.636;23.198;2023-05-19T00:31:44;9.60;;;4.65;;
37205;SDS011;23099;42.636;23.198;2023-05-19T00:34:11;10.70;;;4.88;;
37205;SDS011;23099;42.636;23.198;2023-05-19T00:36:37;7.78;;;4.45;;
37205;SDS011;23099;42.636;23.198;2023-05-19T00:39:04;12.10;;;5.03;;
37205;SDS011;23099;42.636;23.198;2023-05-19T00:41:31;12.40;;;4.78;;
37205;SDS011;23099;42.636;23.198;2023-05-19T00:43:59;13.73;;;4.72;;
37205;SDS011;23099;42.636;23.198;2023-05-19T00:46:26;13.07;;;4.80;;
37205;SDS011;23099;42.636;23.198;2023-05-19T00:48:54;11.00;;;5.00;;
37205;SDS011;23099;42.636;23.198;2023-05-19T00:51:21;9.25;;;4.63;;
37205;SDS011;23099;42.636;23.198;2023-05-19T00:53:49;11.50;;;3.92;;
37205;SDS011;23099;42.636;23.198;2023-05-19T00:56:16;14.05;;;4.93;;
37205;SDS011;23099;42.636;23.198;2023-05-19T00:58:44;10.27;;;4.90;;
37205;SDS011;23099;42.636;23.198;2023-05-19T01:01:12;9.38;;;4.70;;
37205;SDS011;23099;42.636;23.198;2023-05-19T01:03:41;9.45;;;4.28;;
37205;SDS011;23099;42.636;23.198;2023-05-19T01:06:09;10.02;;;5.00;;
37205;SDS011;23099;42.636;23.198;2023-05-19T01:08:36;9.68;;;4.45;;
37205;SDS011;23099;42.636;23.198;2023-05-19T01:11:03;10.02;;;4.78;;
37205;SDS011;23099;42.636;23.198;2023-05-19T01:13:30;9.02;;;4.38;;
37205;SDS011;23099;42.636;23.198;2023-05-19T01:15:59;11.40;;;4.72;;
37205;SDS011;23099;42.636;23.198;2023-05-19T01:18:43;12.73;;;4.43;;
37205;SDS011;23099;42.636;23.198;2023-05-19T01:21:24;9.93;;;4.47;;
37205;SDS011;23099;42.636;23.198;2023-05-19T01:24:06;9.27;;;4.22;;
37205;SDS011;23099;42.636;23.198;2023-05-19T01:26:53;11.27;;;5.47;;
37205;SDS011;23099;42.636;23.198;2023-05-19T01:29:41;14.30;;;4.95;;
37205;SDS011;23099;42.636;23.198;2023-05-19T01:34:44;9.90;;;4.75;;
37205;SDS011;23099;42.636;23.198;2023-05-19T01:37:14;7.88;;;4.07;;
37205;SDS011;23099;42.636;23.198;2023-05-19T01:39:43;9.68;;;4.88;;
37205;SDS011;23099;42.636;23.198;2023-05-19T01:42:10;9.60;;;4.55;;
37205;SDS011;23099;42.636;23.198;2023-05-19T01:44:37;19.27;;;5.75;;
37205;SDS011;23099;42.636;23.198;2023-05-19T01:47:04;16.15;;;5.13;;
37205;SDS011;23099;42.636;23.198;2023-05-19T01:49:33;10.80;;;4.63;;
37205;SDS011;23099;42.636;23.198;2023-05-19T01:52:00;9.63;;;4.32;;
37205;SDS011;23099;42.636;23.198;2023-05-19T01:54:27;11.70;;;4.78;;
37205;SDS011;23099;42.636;23.198;2023-05-19T01:56:56;9.38;;;4.40;;
37205;SDS011;23099;42.636;23.198;2023-05-19T01:59:35;10.98;;;4.15;;
37205;SDS011;23099;42.636;23.198;2023-05-19T02:02:09;10.73;;;4.68;;
37205;SDS011;23099;42.636;23.198;2023-05-19T02:04:49;10.73;;;5.05;;
37205;SDS011;23099;42.636;23.198;2023-05-19T02:07:21;10.38;;;5.20;;
37205;SDS011;23099;42.636;23.198;2023-05-19T02:10:03;10.70;;;5.35;;
37205;SDS011;23099;42.636;23.198;2023-05-19T02:12:33;16.20;;;5.13;;
37205;SDS011;23099;42.636;23.198;2023-05-19T02:15:03;40.95;;;6.95;;
37205;SDS011;23099;42.636;23.198;2023-05-19T02:17:32;10.63;;;5.43;;
37205;SDS011;23099;42.636;23.198;2023-05-19T02:20:04;10.65;;;5.38;;
37205;SDS011;23099;42.636;23.198;2023-05-19T02:22:32;14.15;;;5.82;;
37205;SDS011;23099;42.636;23.198;2023-05-19T02:24:59;10.32;;;5.38;;
37205;SDS011;23099;42.636;23.198;2023-05-19T02:27:26;14.07;;;6.22;;
37205;SDS011;23099;42.636;23.198;2023-05-19T02:29:54;11.30;;;6.10;;
37205;SDS011;23099;42.636;23.198;2023-05-19T02:32:20;15.60;;;6.00;;
37205;SDS011;23099;42.636;23.198;2023-05-19T02:34:47;15.43;;;7.00;;
37205;SDS011;23099;42.636;23.198;2023-05-19T02:37:15;14.48;;;5.38;;
37205;SDS011;23099;42.636;23.198;2023-05-19T02:39:42;12.90;;;5.68;;
37205;SDS011;23099;42.636;23.198;2023-05-19T02:42:09;13.52;;;6.10;;
37205;SDS011;23099;42.636;23.198;2023-05-19T02:44:36;12.93;;;5.88;;
37205;SDS011;23099;42.636;23.198;2023-05-19T02:47:03;12.60;;;6.30;;
37205;SDS011;23099;42.636;23.198;2023-05-19T02:49:30;13.13;;;6.43;;
37205;SDS011;23099;42.636;23.198;2023-05-19T02:52:00;12.52;;;6.00;;
37205;SDS011;23099;42.636;23.198;2023-05-19T02:54:28;15.73;;;6.60;;
37205;SDS011;23099;42.636;23.198;2023-05-19T02:56:55;15.85;;;8.02;;
37205;SDS011;23099;42.636;23.198;2023-05-19T02:59:21;15.38;;;7.32;;
37205;SDS011;23099;42.636;23.198;2023-05-19T03:01:49;13.65;;;7.25;;
37205;SDS011;23099;42.636;23.198;2023-05-19T03:04:15;16.23;;;9.70;;
37205;SDS011;23099;42.636;23.198;2023-05-19T03:06:44;21.00;;;10.25;;
37205;SDS011;23099;42.636;23.198;2023-05-19T03:09:10;18.45;;;10.73;;
37205;SDS011;23099;42.636;23.198;2023-05-19T03:11:39;19.17;;;10.50;;
37205;SDS011;23099;42.636;23.198;2023-05-19T03:14:05;23.55;;;10.60;;
37205;SDS011;23099;42.636;23.198;2023-05-19T03:16:34;19.48;;;10.73;;
37205;SDS011;23099;42.636;23.198;2023-05-19T03:19:00;19.38;;;11.65;;
37205;SDS011;23099;42.636;23.198;2023-05-19T03:21:27;21.83;;;10.52;;
37205;SDS011;23099;42.636;23.198;2023-05-19T03:23:54;16.45;;;10.48;;
37205;SDS011;23099;42.636;23.198;2023-05-19T03:26:21;18.42;;;9.95;;
37205;SDS011;23099;42.636;23.198;2023-05-19T03:28:49;20.42;;;10.80;;
37205;SDS011;23099;42.636;23.198;2023-05-19T03:31:16;17.45;;;10.52;;
37205;SDS011;23099;42.636;23.198;2023-05-19T03:33:43;16.65;;;9.80;;
37205;SDS011;23099;42.636;23.198;2023-05-19T03:36:10;16.50;;;9.82;;
37205;SDS011;23099;42.636;23.198;2023-05-19T03:38:37;18.27;;;9.23;;
37205;SDS011;23099;42.636;23.198;2023-05-19T03:41:04;19.90;;;10.68;;
37205;SDS011;23099;42.636;23.198;2023-05-19T03:43:31;19.65;;;10.82;;
37205;SDS011;23099;42.636;23.198;2023-05-19T03:45:59;18.20;;;10.10;;
37205;SDS011;23099;42.636;23.198;2023-05-19T03:48:26;18.13;;;9.88;;
37205;SDS011;23099;42.636;23.198;2023-05-19T03:50:52;19.27;;;10.07;;
37205;SDS011;23099;42.636;23.198;2023-05-19T03:53:19;16.85;;;9.57;;
37205;SDS011;23099;42.636;23.198;2023-05-19T03:55:46;19.70;;;10.27;;
37205;SDS011;23099;42.636;23.198;2023-05-19T03:58:13;17.77;;;9.90;;
37205;SDS011;23099;42.636;23.198;2023-05-19T04:00:40;17.30;;;9.57;;
37205;SDS011;23099;42.636;23.198;2023-05-19T04:03:08;18.67;;;10.23;;
37205;SDS011;23099;42.636;23.198;2023-05-19T04:05:35;16.45;;;9.55;;
37205;SDS011;23099;42.636;23.198;2023-05-19T04:08:02;19.13;;;10.35;;
37205;SDS011;23099;42.636;23.198;2023-05-19T04:10:29;16.88;;;9.57;;
37205;SDS011;23099;42.636;23.198;2023-05-19T04:12:55;16.67;;;9.15;;
37205;SDS011;23099;42.636;23.198;2023-05-19T04:15:22;17.98;;;10.30;;
37205;SDS011;23099;42.636;23.198;2023-05-19T04:17:49;19.10;;;10.65;;
37205;SDS011;23099;42.636;23.198;2023-05-19T04:20:17;22.38;;;10.43;;
37205;SDS011;23099;42.636;23.198;2023-05-19T04:22:43;20.83;;;10.65;;
37205;SDS011;23099;42.636;23.198;2023-05-19T04:25:10;17.92;;;10.55;;
37205;SDS011;23099;42.636;23.198;2023-05-19T04:27:37;17.83;;;10.13;;
37205;SDS011;23099;42.636;23.198;2023-05-19T04:30:04;23.02;;;10.35;;
37205;SDS011;23099;42.636;23.198;2023-05-19T04:32:32;21.73;;;10.13;;
37205;SDS011;23099;42.636;23.198;2023-05-19T04:34:58;18.30;;;10.20;;
37205;SDS011;23099;42.636;23.198;2023-05-19T04:37:26;17.00;;;9.90;;
37205;SDS011;23099;42.636;23.198;2023-05-19T04:39:54;16.40;;;9.32;;
37205;SDS011;23099;42.636;23.198;2023-05-19T04:42:21;20.73;;;9.25;;
37205;SDS011;23099;42.636;23.198;2023-05-19T04:44:50;15.73;;;8.95;;
37205;SDS011;23099;42.636;23.198;2023-05-19T04:47:16;19.67;;;9.73;;
37205;SDS011;23099;42.636;23.198;2023-05-19T04:49:45;18.02;;;10.00;;
37205;SDS011;23099;42.636;23.198;2023-05-19T04:52:12;17.05;;;8.98;;
37205;SDS011;23099;42.636;23.198;2023-05-19T04:54:41;18.17;;;9.68;;
37205;SDS011;23099;42.636;23.198;2023-05-19T04:57:08;18.70;;;10.02;;
37205;SDS011;23099;42.636;23.198;2023-05-19T04:59:35;17.02;;;9.63;;
37205;SDS011;23099;42.636;23.198;2023-05-19T05:02:02;17.63;;;9.98;;
37205;SDS011;23099;42.636;23.198;2023-05-19T05:04:29;16.15;;;9.52;;
37205;SDS011;23099;42.636;23.198;2023-05-19T05:06:56;16.88;;;10.30;;
37205;SDS011;23099;42.636;23.198;2023-05-19T05:09:23;19.20;;;9.23;;
37205;SDS011;23099;42.636;23.198;2023-05-19T05:11:51;17.77;;;9.80;;
37205;SDS011;23099;42.636;23.198;2023-05-19T05:14:19;17.90;;;9.73;;
37205;SDS011;23099;42.636;23.198;2023-05-19T05:16:46;18.55;;;10.55;;
37205;SDS011;23099;42.636;23.198;2023-05-19T05:19:13;16.83;;;9.93;;
37205;SDS011;23099;42.636;23.198;2023-05-19T05:21:40;18.33;;;10.07;;
37205;SDS011;23099;42.636;23.198;2023-05-19T05:24:08;17.40;;;9.55;;
37205;SDS011;23099;42.636;23.198;2023-05-19T05:26:36;19.67;;;9.55;;
37205;SDS011;23099;42.636;23.198;2023-05-19T05:29:04;16.88;;;9.20;;
37205;SDS011;23099;42.636;23.198;2023-05-19T05:31:31;15.48;;;8.95;;
37205;SDS011;23099;42.636;23.198;2023-05-19T05:33:58;16.58;;;8.95;;
37205;SDS011;23099;42.636;23.198;2023-05-19T05:36:25;16.23;;;9.82;;
37205;SDS011;23099;42.636;23.198;2023-05-19T05:38:51;16.65;;;9.38;;
37205;SDS011;23099;42.636;23.198;2023-05-19T05:41:18;17.08;;;8.70;;
37205;SDS011;23099;42.636;23.198;2023-05-19T05:43:46;16.92;;;8.77;;
37205;SDS011;23099;42.636;23.198;2023-05-19T05:46:14;14.93;;;8.45;;
37205;SDS011;23099;42.636;23.198;2023-05-19T05:48:41;16.55;;;8.85;;
37205;SDS011;23099;42.636;23.198;2023-05-19T05:51:08;16.42;;;8.60;;
37205;SDS011;23099;42.636;23.198;2023-05-19T05:53:36;14.75;;;8.20;;
37205;SDS011;23099;42.636;23.198;2023-05-19T05:56:08;15.40;;;9.00;;
37205;SDS011;23099;42.636;23.198;2023-05-19T05:58:36;13.05;;;8.38;;
37205;SDS011;23099;42.636;23.198;2023-05-19T06:03:35;14.63;;;7.97;;
37205;SDS011;23099;42.636;23.198;2023-05-19T06:06:03;12.48;;;7.13;;
37205;SDS011;23099;42.636;23.198;2023-05-19T06:08:30;14.70;;;7.70;;
37205;SDS011;23099;42.636;23.198;2023-05-19T06:10:57;14.93;;;7.63;;
37205;SDS011;23099;42.636;23.198;2023-05-19T06:13:24;13.60;;;7.40;;
37205;SDS011;23099;42.636;23.198;2023-05-19T06:15:51;12.90;;;6.65;;
37205;SDS011;23099;42.636;23.198;2023-05-19T06:18:17;11.90;;;6.25;;
37205;SDS011;23099;42.636;23.198;2023-05-19T06:20:45;11.45;;;6.60;;
37205;SDS011;23099;42.636;23.198;2023-05-19T06:23:12;12.05;;;6.43;;
37205;SDS011;23099;42.636;23.198;2023-05-19T06:25:39;11.90;;;6.15;;
37205;SDS011;23099;42.636;23.198;2023-05-19T06:28:05;10.57;;;6.40;;
37205;SDS011;23099;42.636;23.198;2023-05-19T06:30:32;11.63;;;6.90;;
37205;SDS011;23099;42.636;23.198;2023-05-19T06:32:58;9.88;;;5.95;;
37205;SDS011;23099;42.636;23.198;2023-05-19T06:35:25;11.77;;;5.93;;
37205;SDS011;23099;42.636;23.198;2023-05-19T06:37:53;13.15;;;6.28;;
37205;SDS011;23099;42.636;23.198;2023-05-19T06:40:20;11.32;;;5.53;;
37205;SDS011;23099;42.636;23.198;2023-05-19T06:42:47;12.57;;;5.97;;
37205;SDS011;23099;42.636;23.198;2023-05-19T06:45:14;11.32;;;5.78;;
37205;SDS011;23099;42.636;23.198;2023-05-19T06:47:45;11.25;;;6.13;;
37205;SDS011;23099;42.636;23.198;2023-05-19T06:50:12;14.07;;;6.15;;
37205;SDS011;23099;42.636;23.198;2023-05-19T06:52:39;17.92;;;6.57;;
37205;SDS011;23099;42.636;23.198;2023-05-19T06:55:07;14.65;;;6.07;;
37205;SDS011;23099;42.636;23.198;2023-05-19T06:57:34;11.85;;;5.65;;
37205;SDS011;23099;42.636;23.198;2023-05-19T07:00:01;12.18;;;6.47;;
37205;SDS011;23099;42.636;23.198;2023-05-19T07:02:29;12.25;;;6.47;;
37205;SDS011;23099;42.636;23.198;2023-05-19T07:04:55;10.80;;;6.03;;
37205;SDS011;23099;42.636;23.198;2023-05-19T07:07:22;12.35;;;5.80;;
37205;SDS011;23099;42.636;23.198;2023-05-19T07:09:49;13.05;;;7.18;;
37205;SDS011;23099;42.636;23.198;2023-05-19T07:12:17;13.15;;;6.97;;
37205;SDS011;23099;42.636;23.198;2023-05-19T07:14:43;13.05;;;5.60;;
37205;SDS011;23099;42.636;23.198;2023-05-19T07:17:10;9.88;;;5.90;;
37205;SDS011;23099;42.636;23.198;2023-05-19T07:19:37;12.15;;;5.72;;
37205;SDS011;23099;42.636;23.198;2023-05-19T07:22:03;10.75;;;5.97;;
37205;SDS011;23099;42.636;23.198;2023-05-19T07:24:30;11.63;;;6.40;;
37205;SDS011;23099;42.636;23.198;2023-05-19T07:26:57;13.60;;;6.78;;
37205;SDS011;23099;42.636;23.198;2023-05-19T07:29:25;16.48;;;6.88;;
37205;SDS011;23099;42.636;23.198;2023-05-19T07:31:53;12.68;;;7.47;;
37205;SDS011;23099;42.636;23.198;2023-05-19T07:34:21;14.77;;;7.20;;
37205;SDS011;23099;42.636;23.198;2023-05-19T07:36:48;14.18;;;6.80;;
37205;SDS011;23099;42.636;23.198;2023-05-19T07:39:16;13.10;;;7.95;;
37205;SDS011;23099;42.636;23.198;2023-05-19T07:41:43;12.75;;;6.05;;
37205;SDS011;23099;42.636;23.198;2023-05-19T07:44:16;16.15;;;6.57;;
37205;SDS011;23099;42.636;23.198;2023-05-19T07:46:44;12.32;;;6.93;;
37205;SDS011;23099;42.636;23.198;2023-05-19T07:49:11;13.68;;;7.07;;
37205;SDS011;23099;42.636;23.198;2023-05-19T07:51:37;13.55;;;7.70;;
37205;SDS011;23099;42.636;23.198;2023-05-19T07:54:05;13.13;;;6.80;;
37205;SDS011;23099;42.636;23.198;2023-05-19T07:56:33;16.63;;;7.25;;
37205;SDS011;23099;42.636;23.198;2023-05-19T07:58:59;14.52;;;6.82;;
37205;SDS011;23099;42.636;23.198;2023-05-19T08:01:26;16.23;;;7.28;;
37205;SDS011;23099;42.636;23.198;2023-05-19T08:03:54;20.40;;;7.97;;
37205;SDS011;23099;42.636;23.198;2023-05-19T08:06:21;13.32;;;6.90;;
37205;SDS011;23099;42.636;23.198;2023-05-19T08:08:49;16.05;;;7.85;;
37205;SDS011;23099;42.636;23.198;2023-05-19T08:11:16;14.30;;;7.30;;
37205;SDS011;23099;42.636;23.198;2023-05-19T08:13:43;17.05;;;8.27;;
37205;SDS011;23099;42.636;23.198;2023-05-19T08:16:11;17.73;;;8.38;;
37205;SDS011;23099;42.636;23.198;2023-05-19T08:18:38;14.45;;;7.97;;
37205;SDS011;23099;42.636;23.198;2023-05-19T08:21:06;13.98;;;8.02;;
37205;SDS011;23099;42.636;23.198;2023-05-19T08:23:33;15.55;;;9.35;;
37205;SDS011;23099;42.636;23.198;2023-05-19T08:26:01;15.70;;;7.97;;
37205;SDS011;23099;42.636;23.198;2023-05-19T08:28:27;19.10;;;8.88;;
37205;SDS011;23099;42.636;23.198;2023-05-19T08:30:54;15.98;;;8.88;;
37205;SDS011;23099;42.636;23.198;2023-05-19T08:33:21;17.15;;;9.18;;
37205;SDS011;23099;42.636;23.198;2023-05-19T08:35:47;15.73;;;8.38;;
37205;SDS011;23099;42.636;23.198;2023-05-19T08:38:15;19.88;;;9.02;;
37205;SDS011;23099;42.636;23.198;2023-05-19T08:40:42;18.35;;;10.63;;
37205;SDS011;23099;42.636;23.198;2023-05-19T08:43:11;16.77;;;9.60;;
37205;SDS011;23099;42.636;23.198;2023-05-19T08:45:38;17.95;;;9.45;;
37205;SDS011;23099;42.636;23.198;2023-05-19T08:48:08;16.67;;;9.15;;
37205;SDS011;23099;42.636;23.198;2023-05-19T08:50:37;20.25;;;9.88;;
37205;SDS011;23099;42.636;23.198;2023-05-19T08:53:07;14.93;;;8.98;;
37205;SDS011;23099;42.636;23.198;2023-05-19T08:55:40;20.60;;;9.80;;
37205;SDS011;23099;42.636;23.198;2023-05-19T08:58:12;16.25;;;9.77;;
37205;SDS011;23099;42.636;23.198;2023-05-19T09:00:40;18.65;;;9.45;;
37205;SDS011;23099;42.636;23.198;2023-05-19T09:03:08;22.95;;;10.32;;
37205;SDS011;23099;42.636;23.198;2023-05-19T09:05:36;17.33;;;9.73;;
37205;SDS011;23099;42.636;23.198;2023-05-19T09:08:03;18.67;;;9.82;;
37205;SDS011;23099;42.636;23.198;2023-05-19T09:10:30;20.67;;;10.13;;
37205;SDS011;23099;42.636;23.198;2023-05-19T09:12:58;15.77;;;10.10;;
37205;SDS011;23099;42.636;23.198;2023-05-19T09:18:01;17.08;;;9.57;;
37205;SDS011;23099;42.636;23.198;2023-05-19T09:20:32;18.20;;;9.82;;
37205;SDS011;23099;42.636;23.198;2023-05-19T09:23:02;16.27;;;9.80;;
37205;SDS011;23099;42.636;23.198;2023-05-19T09:25:29;19.48;;;9.43;;
37205;SDS011;23099;42.636;23.198;2023-05-19T09:27:56;18.15;;;9.55;;
37205;SDS011;23099;42.636;23.198;2023-05-19T09:30:24;21.17;;;11.30;;
37205;SDS011;23099;42.636;23.198;2023-05-19T09:32:51;21.20;;;10.20;;
37205;SDS011;23099;42.636;23.198;2023-05-19T09:35:18;17.38;;;10.52;;
37205;SDS011;23099;42.636;23.198;2023-05-19T09:37:45;18.70;;;10.02;;
37205;SDS011;23099;42.636;23.198;2023-05-19T09:40:12;21.90;;;10.82;;
37205;SDS011;23099;42.636;23.198;2023-05-19T09:42:40;17.33;;;10.60;;
37205;SDS011;23099;42.636;23.198;2023-05-19T09:45:08;14.75;;;10.18;;
37205;SDS011;23099;42.636;23.198;2023-05-19T09:47:37;18.27;;;9.43;;
37205;SDS011;23099;42.636;23.198;2023-05-19T09:50:05;15.98;;;9.18;;
37205;SDS011;23099;42.636;23.198;2023-05-19T09:55:00;19.83;;;9.60;;
37205;SDS011;23099;42.636;23.198;2023-05-19T09:57:31;18.13;;;9.57;;
37205;SDS011;23099;42.636;23.198;2023-05-19T09:59:59;14.63;;;8.50;;
37205;SDS011;23099;42.636;23.198;2023-05-19T10:02:36;20.45;;;9.95;;
37205;SDS011;23099;42.636;23.198;2023-05-19T10:05:07;20.38;;;9.73;;
37205;SDS011;23099;42.636;23.198;2023-05-19T10:07:35;20.25;;;9.43;;
37205;SDS011;23099;42.636;23.198;2023-05-19T10:10:04;20.20;;;10.02;;
37205;SDS011;23099;42.636;23.198;2023-05-19T10:12:35;15.20;;;9.82;;
37205;SDS011;23099;42.636;23.198;2023-05-19T10:17:30;18.67;;;9.35;;
37205;SDS011;23099;42.636;23.198;2023-05-19T10:20:00;20.00;;;10.23;;
37205;SDS011;23099;42.636;23.198;2023-05-19T10:22:28;19.20;;;11.68;;
37205;SDS011;23099;42.636;23.198;2023-05-19T10:24:55;20.55;;;10.15;;
37205;SDS011;23099;42.636;23.198;2023-05-19T10:27:22;13.63;;;8.77;;
37205;SDS011;23099;42.636;23.198;2023-05-19T10:29:51;17.83;;;9.27;;
37205;SDS011;23099;42.636;23.198;2023-05-19T10:32:23;20.65;;;9.68;;
37205;SDS011;23099;42.636;23.198;2023-05-19T10:34:58;17.55;;;9.52;;
37205;SDS011;23099;42.636;23.198;2023-05-19T10:37:43;14.65;;;9.32;;
37205;SDS011;23099;42.636;23.198;2023-05-19T10:40:17;13.88;;;8.93;;
37205;SDS011;23099;42.636;23.198;2023-05-19T10:42:52;15.10;;;8.68;;
37205;SDS011;23099;42.636;23.198;2023-05-19T10:45:29;18.15;;;8.40;;
37205;SDS011;23099;42.636;23.198;2023-05-19T10:47:58;15.15;;;8.63;;
37205;SDS011;23099;42.636;23.198;2023-05-19T10:50:26;17.83;;;8.45;;
37205;SDS011;23099;42.636;23.198;2023-05-19T10:53:01;17.05;;;8.88;;
37205;SDS011;23099;42.636;23.198;2023-05-19T10:58:10;16.05;;;8.00;;
37205;SDS011;23099;42.636;23.198;2023-05-19T11:00:37;16.80;;;8.65;;
37205;SDS011;23099;42.636;23.198;2023-05-19T11:03:11;14.65;;;7.75;;
37205;SDS011;23099;42.636;23.198;2023-05-19T11:05:40;16.85;;;8.65;;
37205;SDS011;23099;42.636;23.198;2023-05-19T11:08:09;13.45;;;8.13;;
37205;SDS011;23099;42.636;23.198;2023-05-19T11:10:37;14.68;;;8.32;;
37205;SDS011;23099;42.636;23.198;2023-05-19T11:13:04;15.98;;;7.28;;
37205;SDS011;23099;42.636;23.198;2023-05-19T11:15:33;12.65;;;8.10;;
37205;SDS011;23099;42.636;23.198;2023-05-19T11:18:01;20.67;;;7.90;;
37205;SDS011;23099;42.636;23.198;2023-05-19T11:20:29;17.40;;;8.20;;
37205;SDS011;23099;42.636;23.198;2023-05-19T11:23:06;20.88;;;7.95;;
37205;SDS011;23099;42.636;23.198;2023-05-19T11:25:39;15.30;;;7.47;;
37205;SDS011;23099;42.636;23.198;2023-05-19T11:28:07;13.90;;;8.63;;
37205;SDS011;23099;42.636;23.198;2023-05-19T11:30:37;15.63;;;7.82;;
37205;SDS011;23099;42.636;23.198;2023-05-19T11:33:04;13.82;;;8.32;;
37205;SDS011;23099;42.636;23.198;2023-05-19T11:35:31;19.20;;;9.57;;
37205;SDS011;23099;42.636;23.198;2023-05-19T11:37:58;12.93;;;8.00;;
37205;SDS011;23099;42.636;23.198;2023-05-19T11:40:27;12.05;;;8.07;;
37205;SDS011;23099;42.636;23.198;2023-05-19T11:42:54;15.82;;;7.80;;
37205;SDS011;23099;42.636;23.198;2023-05-19T11:45:23;16.17;;;8.02;;
37205;SDS011;23099;42.636;23.198;2023-05-19T11:47:51;17.23;;;8.30;;
37205;SDS011;23099;42.636;23.198;2023-05-19T11:50:20;20.25;;;8.77;;
37205;SDS011;23099;42.636;23.198;2023-05-19T11:52:47;15.35;;;8.10;;
37205;SDS011;23099;42.636;23.198;2023-05-19T11:55:14;11.90;;;7.63;;
37205;SDS011;23099;42.636;23.198;2023-05-19T11:57:42;15.80;;;8.50;;
37205;SDS011;23099;42.636;23.198;2023-05-19T12:00:16;15.90;;;8.20;;
37205;SDS011;23099;42.636;23.198;2023-05-19T12:02:43;14.77;;;7.72;;
37205;SDS011;23099;42.636;23.198;2023-05-19T12:05:16;12.45;;;7.88;;
37205;SDS011;23099;42.636;23.198;2023-05-19T12:07:43;15.57;;;7.97;;
37205;SDS011;23099;42.636;23.198;2023-05-19T12:10:13;15.50;;;8.43;;
37205;SDS011;23099;42.636;23.198;2023-05-19T12:12:40;14.27;;;8.55;;
37205;SDS011;23099;42.636;23.198;2023-05-19T12:15:10;15.52;;;9.55;;
37205;SDS011;23099;42.636;23.198;2023-05-19T12:17:37;14.48;;;9.88;;
37205;SDS011;23099;42.636;23.198;2023-05-19T12:20:04;14.75;;;7.88;;
37205;SDS011;23099;42.636;23.198;2023-05-19T12:22:31;17.90;;;9.18;;
37205;SDS011;23099;42.636;23.198;2023-05-19T12:24:59;17.53;;;8.40;;
37205;SDS011;23099;42.636;23.198;2023-05-19T12:27:26;14.20;;;7.45;;
37205;SDS011;23099;42.636;23.198;2023-05-19T12:29:55;15.27;;;7.25;;
37205;SDS011;23099;42.636;23.198;2023-05-19T12:32:22;13.02;;;7.30;;
37205;SDS011;23099;42.636;23.198;2023-05-19T12:34:50;9.65;;;5.88;;
37205;SDS011;23099;42.636;23.198;2023-05-19T12:37:17;10.70;;;5.45;;
37205;SDS011;23099;42.636;23.198;2023-05-19T12:39:44;10.65;;;5.72;;
37205;SDS011;23099;42.636;23.198;2023-05-19T12:42:11;9.32;;;5.50;;
37205;SDS011;23099;42.636;23.198;2023-05-19T12:44:40;11.27;;;6.15;;
37205;SDS011;23099;42.636;23.198;2023-05-19T12:47:12;11.35;;;6.40;;
37205;SDS011;23099;42.636;23.198;2023-05-19T12:49:52;11.35;;;5.95;;
37205;SDS011;23099;42.636;23.198;2023-05-19T12:52:19;11.73;;;6.45;;
37205;SDS011;23099;42.636;23.198;2023-05-19T12:54:47;12.15;;;6.35;;
37205;SDS011;23099;42.636;23.198;2023-05-19T12:57:15;13.48;;;6.93;;
37205;SDS011;23099;42.636;23.198;2023-05-19T12:59:41;12.07;;;6.78;;
37205;SDS011;23099;42.636;23.198;2023-05-19T13:02:08;12.25;;;6.38;;
37205;SDS011;23099;42.636;23.198;2023-05-19T13:04:36;11.95;;;7.05;;
37205;SDS011;23099;42.636;23.198;2023-05-19T13:07:03;11.95;;;6.68;;
37205;SDS011;23099;42.636;23.198;2023-05-19T13:09:30;12.45;;;6.80;;
37205;SDS011;23099;42.636;23.198;2023-05-19T13:12:00;13.68;;;7.93;;
37205;SDS011;23099;42.636;23.198;2023-05-19T13:16:55;12.52;;;7.38;;
37205;SDS011;23099;42.636;23.198;2023-05-19T13:19:21;14.77;;;7.25;;
37205;SDS011;23099;42.636;23.198;2023-05-19T13:21:49;13.35;;;8.00;;
37205;SDS011;23099;42.636;23.198;2023-05-19T13:24:16;12.35;;;7.82;;
37205;SDS011;23099;42.636;23.198;2023-05-19T13:26:42;11.43;;;7.55;;
37205;SDS011;23099;42.636;23.198;2023-05-19T13:29:10;12.50;;;7.53;;
37205;SDS011;23099;42.636;23.198;2023-05-19T13:31:37;13.88;;;8.57;;
37205;SDS011;23099;42.636;23.198;2023-05-19T13:34:03;13.65;;;7.90;;
37205;SDS011;23099;42.636;23.198;2023-05-19T13:36:30;11.23;;;7.07;;
37205;SDS011;23099;42.636;23.198;2023-05-19T13:39:00;10.75;;;6.82;;
37205;SDS011;23099;42.636;23.198;2023-05-19T13:41:26;12.55;;;6.88;;
37205;SDS011;23099;42.636;23.198;2023-05-19T13:43:53;12.35;;;7.47;;
37205;SDS011;23099;42.636;23.198;2023-05-19T13:48:48;10.25;;;6.25;;
37205;SDS011;23099;42.636;23.198;2023-05-19T13:51:15;13.25;;;6.88;;
37205;SDS011;23099;42.636;23.198;2023-05-19T13:53:42;12.70;;;6.95;;
37205;SDS011;23099;42.636;23.198;2023-05-19T13:56:10;11.38;;;7.47;;
37205;SDS011;23099;42.636;23.198;2023-05-19T13:58:36;12.18;;;8.07;;
37205;SDS011;23099;42.636;23.198;2023-05-19T14:01:03;15.60;;;8.52;;
37205;SDS011;23099;42.636;23.198;2023-05-19T14:03:30;12.18;;;8.07;;
37205;SDS011;23099;42.636;23.198;2023-05-19T14:05:56;12.43;;;8.60;;
37205;SDS011;23099;42.636;23.198;2023-05-19T14:08:23;14.38;;;8.40;;
37205;SDS011;23099;42.636;23.198;2023-05-19T14:10:50;13.48;;;8.68;;
37205;SDS011;23099;42.636;23.198;2023-05-19T14:13:18;12.43;;;8.35;;
37205;SDS011;23099;42.636;23.198;2023-05-19T14:15:46;13.30;;;8.80;;
37205;SDS011;23099;42.636;23.198;2023-05-19T14:18:13;14.80;;;9.48;;
37205;SDS011;23099;42.636;23.198;2023-05-19T14:20:40;15.85;;;8.48;;
37205;SDS011;23099;42.636;23.198;2023-05-19T14:23:06;16.23;;;9.55;;
37205;SDS011;23099;42.636;23.198;2023-05-19T14:25:33;16.73;;;9.65;;
37205;SDS011;23099;42.636;23.198;2023-05-19T14:28:00;16.23;;;8.00;;
37205;SDS011;23099;42.636;23.198;2023-05-19T14:30:28;17.23;;;7.55;;
37205;SDS011;23099;42.636;23.198;2023-05-19T14:32:54;14.57;;;8.63;;
37205;SDS011;23099;42.636;23.198;2023-05-19T14:35:21;14.90;;;7.32;;
37205;SDS011;23099;42.636;23.198;2023-05-19T14:37:48;14.65;;;7.90;;
37205;SDS011;23099;42.636;23.198;2023-05-19T14:40:14;15.80;;;7.93;;
37205;SDS011;23099;42.636;23.198;2023-05-19T14:42:41;12.32;;;7.03;;
37205;SDS011;23099;42.636;23.198;2023-05-19T14:45:08;15.07;;;7.60;;
37205;SDS011;23099;42.636;23.198;2023-05-19T14:47:37;11.40;;;7.10;;